Time;durP1;ratioP1;P1;durP2;ratioP2;P2;SDS_P1;SDS_P2;PMS_P1;PMS_P2;Temp;Humidity;BMP_temperature;BMP_pressure;BME280_temperature;BME280_humidity;BME280_pressure;Samples;Min_cycle;Max_cycle;Signal;HPM_P1;HPM_P2
2024/01/11 00:01:12;;;;;;;64.53;23.40;;;;;;;-9.89;100.00;99646.34;2535079;29;20040;-85
2024/01/11 00:02:28;;;;;;;56.90;20.90;;;;;;;-9.93;100.00;99635.09;2533776;29;20077;-85
2024/01/11 00:03:44;;;;;;;59.63;23.02;;;;;;;-9.76;100.00;99636.31;2534323;29;20060;-85
2024/01/11 00:05:00;;;;;;;60.60;20.48;;;;;;;-9.73;100.00;99636.53;2547234;29;20035;-85
2024/01/11 00:06:16;;;;;;;58.13;20.70;;;;;;;-9.58;100.00;99634.22;2545306;29;20099;-85
2024/01/11 00:07:32;;;;;;;57.83;22.00;;;;;;;-9.56;100.00;99625.09;2542851;29;20044;-84
2024/01/11 00:08:48;;;;;;;58.17;20.90;;;;;;;-9.43;100.00;99633.56;2548254;29;20028;-85
2024/01/11 00:10:06;;;;;;;59.45;20.88;;;;;;;-9.36;100.00;99630.66;2543416;29;20056;-85
2024/01/11 00:11:22;;;;;;;59.15;20.65;;;;;;;-9.40;100.00;99628.69;2528465;29;20044;-85
2024/01/11 00:12:39;;;;;;;59.33;19.95;;;;;;;-9.75;100.00;99629.63;2542145;29;20063;-85
2024/01/11 00:13:57;;;;;;;55.80;21.27;;;;;;;-9.74;100.00;99629.72;2544932;29;20472;-86
2024/01/11 00:15:13;;;;;;;52.17;21.10;;;;;;;-9.72;100.00;99629.84;2532752;29;20044;-85
2024/01/11 00:16:29;;;;;;;62.78;21.50;;;;;;;-9.82;100.00;99636.75;2536319;29;20044;-85
2024/01/11 00:17:45;;;;;;;56.53;20.13;;;;;;;-9.91;100.00;99632.69;2536970;29;20040;-85
2024/01/11 00:19:02;;;;;;;55.30;21.02;;;;;;;-9.87;100.00;99630.50;2528897;29;20137;-84
2024/01/11 00:20:18;;;;;;;58.85;21.08;;;;;;;-9.81;100.00;99636.00;2522200;29;20048;-85
2024/01/11 00:21:34;;;;;;;53.28;20.95;;;;;;;-9.98;100.00;99636.44;2541346;29;20047;-85
2024/01/11 00:22:51;;;;;;;57.58;20.23;;;;;;;-10.10;100.00;99637.28;2551132;29;20028;-85
2024/01/11 00:24:07;;;;;;;54.67;21.27;;;;;;;-9.97;100.00;99639.09;2544345;29;20036;-84
2024/01/11 00:25:24;;;;;;;58.72;19.25;;;;;;;-9.82;100.00;99639.28;2536504;29;20048;-85
2024/01/11 00:26:41;;;;;;;55.17;19.60;;;;;;;-9.77;100.00;99626.97;2546269;29;20039;-85
2024/01/11 00:27:57;;;;;;;61.55;20.92;;;;;;;-9.71;100.00;99629.06;2550547;29;20572;-85
2024/01/11 00:29:13;;;;;;;52.55;19.48;;;;;;;-9.79;100.00;99625.97;2532580;29;20049;-85
2024/01/11 00:30:29;;;;;;;54.13;19.65;;;;;;;-9.84;100.00;99628.16;2523390;29;20044;-85
2024/01/11 00:31:46;;;;;;;50.78;17.38;;;;;;;-9.95;100.00;99627.41;2537890;29;20227;-85
2024/01/11 00:33:02;;;;;;;45.30;18.25;;;;;;;-10.26;100.00;99637.81;2544819;29;20035;-85
2024/01/11 00:34:18;;;;;;;49.83;18.63;;;;;;;-10.55;100.00;99636.53;2544410;29;20032;-85
2024/01/11 00:35:34;;;;;;;36.58;15.73;;;;;;;-10.52;100.00;99629.19;2533820;29;20041;-84
2024/01/11 00:36:50;;;;;;;39.33;14.45;;;;;;;-10.40;100.00;99636.78;2513825;29;20052;-85
2024/01/11 00:38:07;;;;;;;44.38;15.63;;;;;;;-10.25;100.00;99626.03;2533286;29;20039;-84
2024/01/11 00:39:23;;;;;;;50.42;17.92;;;;;;;-10.16;100.00;99636.84;2553451;29;20160;-85
2024/01/11 00:40:39;;;;;;;43.35;15.75;;;;;;;-10.01;100.00;99632.00;2533495;29;20040;-85
2024/01/11 00:41:55;;;;;;;38.70;15.10;;;;;;;-9.87;100.00;99629.59;2539476;29;20032;-85
2024/01/11 00:43:11;;;;;;;42.03;15.80;;;;;;;-9.93;100.00;99630.94;2542558;29;20540;-85
2024/01/11 00:44:27;;;;;;;43.20;14.95;;;;;;;-9.86;100.00;99633.88;2527351;29;20127;-85
2024/01/11 00:45:47;;;;;;;34.97;13.88;;;;;;;-9.95;100.00;99631.56;2536899;29;20048;-85
2024/01/11 00:47:03;;;;;;;40.08;13.73;;;;;;;-10.08;100.00;99632.34;2545605;29;20147;-84
2024/01/11 00:48:19;;;;;;;41.30;16.27;;;;;;;-10.01;100.00;99636.22;2537114;29;20080;-85
2024/01/11 00:49:35;;;;;;;45.33;15.35;;;;;;;-10.10;100.00;99627.16;2538855;29;20095;-85
2024/01/11 00:50:51;;;;;;;48.45;16.30;;;;;;;-9.96;100.00;99619.69;2543368;29;20032;-85
2024/01/11 00:52:09;;;;;;;46.15;16.80;;;;;;;-9.69;100.00;99615.72;2543678;29;20067;-84
2024/01/11 00:53:30;;;;;;;47.50;17.60;;;;;;;-9.71;100.00;99616.38;2546020;29;20024;-85
2024/01/11 00:54:46;;;;;;;48.65;17.20;;;;;;;-9.71;100.00;99614.72;2533547;29;20470;-85
2024/01/11 00:56:02;;;;;;;55.78;19.30;;;;;;;-9.76;100.00;99615.19;2539909;29;20028;-88
2024/01/11 00:57:18;;;;;;;57.55;19.25;;;;;;;-9.73;100.00;99623.00;2544180;29;20044;-85
2024/01/11 00:58:35;;;;;;;56.33;20.30;;;;;;;-9.67;100.00;99611.66;2537339;29;20059;-85
2024/01/11 00:59:52;;;;;;;57.47;19.42;;;;;;;-9.66;100.00;99609.97;2537594;29;20056;-84
2024/01/11 01:01:11;;;;;;;47.80;18.63;;;;;;;-9.68;100.00;99616.59;2527103;29;20104;-85
2024/01/11 01:02:27;;;;;;;41.47;16.42;;;;;;;-9.89;100.00;99611.78;2537657;29;20059;-84
2024/01/11 01:03:45;;;;;;;42.28;15.52;;;;;;;-9.86;100.00;99606.91;2538280;29;20111;-84
2024/01/11 01:05:02;;;;;;;45.55;17.35;;;;;;;-9.80;100.00;99609.88;2545206;29;20407;-85
2024/01/11 01:06:18;;;;;;;45.13;16.60;;;;;;;-9.77;100.00;99608.34;2543803;29;20044;-85
2024/01/11 01:07:34;;;;;;;43.70;16.00;;;;;;;-9.96;100.00;99602.84;2538396;29;20124;-84
2024/01/11 01:08:51;;;;;;;48.60;16.27;;;;;;;-9.90;100.00;99601.50;2544276;29;20028;-85
2024/01/11 01:10:08;;;;;;;44.03;16.15;;;;;;;-9.94;100.00;99598.75;2542873;29;20043;-85
2024/01/11 01:11:24;;;;;;;45.60;16.52;;;;;;;-10.01;100.00;99596.53;2537803;29;20107;-85
2024/01/11 01:12:40;;;;;;;45.33;16.45;;;;;;;-10.21;100.00;99595.09;2518266;29;20100;-84
2024/01/11 01:13:58;;;;;;;48.38;14.90;;;;;;;-10.23;100.00;99599.16;2535236;29;20035;-85
2024/01/11 01:15:14;;;;;;;42.08;16.42;;;;;;;-10.33;100.00;99599.28;2544946;29;20048;-85
2024/01/11 01:16:30;;;;;;;47.45;17.00;;;;;;;-10.48;100.00;99599.91;2535990;29;20397;-85
2024/01/11 01:17:46;;;;;;;40.83;16.25;;;;;;;-10.36;100.00;99603.31;2542114;29;20179;-85
2024/01/11 01:19:03;;;;;;;48.00;15.93;;;;;;;-10.22;100.00;99599.28;2539862;29;20044;-85
2024/01/11 01:20:19;;;;;;;48.35;17.60;;;;;;;-10.14;100.00;99601.47;2544547;29;20145;-84
2024/01/11 01:21:36;;;;;;;43.20;14.68;;;;;;;-10.12;100.00;99602.50;2536486;29;20087;-85
2024/01/11 01:22:52;;;;;;;46.22;15.00;;;;;;;-10.21;100.00;99603.59;2547757;29;20035;-85
2024/01/11 01:24:09;;;;;;;49.90;16.27;;;;;;;-10.57;100.00;99602.66;2553683;29;20095;-85
2024/01/11 01:25:25;;;;;;;34.47;14.80;;;;;;;-10.62;100.00;99600.53;2542615;29;20128;-85
2024/01/11 01:26:41;;;;;;;32.10;12.25;;;;;;;-10.77;100.00;99608.75;2533598;29;20428;-84
2024/01/11 01:27:59;;;;;;;44.90;14.50;;;;;;;-10.71;100.00;99609.22;2531402;29;20079;-84
2024/01/11 01:29:15;;;;;;;39.03;14.95;;;;;;;-10.40;100.00;99605.53;2543304;29;20099;-85
2024/01/11 01:30:32;;;;;;;43.72;14.90;;;;;;;-10.23;100.00;99596.63;2543541;29;20236;-85
2024/01/11 01:31:49;;;;;;;32.95;11.98;;;;;;;-10.52;100.00;99603.00;2544939;29;20044;-84
2024/01/11 01:33:05;;;;;;;22.73;8.57;;;;;;;-10.71;100.00;99609.22;2544674;29;20028;-84
2024/01/11 01:34:21;;;;;;;27.10;9.73;;;;;;;-10.84;100.00;99606.53;2533463;29;20040;-84
2024/01/11 01:35:38;;;;;;;33.13;13.00;;;;;;;-10.70;100.00;99603.41;2531641;29;20036;-84
2024/01/11 01:36:54;;;;;;;41.97;13.10;;;;;;;-10.45;100.00;99601.81;2538994;29;20128;-84
2024/01/11 01:38:10;;;;;;;27.73;11.52;;;;;;;-10.56;100.00;99606.06;2544077;29;20083;-84
2024/01/11 01:39:26;;;;;;;29.60;10.82;;;;;;;-10.19;100.00;99602.81;2533934;29;20161;-84
2024/01/11 01:40:42;;;;;;;38.88;12.27;;;;;;;-10.43;100.00;99605.31;2534659;29;20048;-85
2024/01/11 01:41:58;;;;;;;35.40;11.75;;;;;;;-10.44;100.00;99607.00;2549217;29;20043;-84
2024/01/11 01:43:16;;;;;;;41.78;13.32;;;;;;;-10.50;100.00;99604.00;2536305;29;20063;-85
2024/01/11 01:44:33;;;;;;;39.78;15.23;;;;;;;-10.44;100.00;99613.69;2534983;29;20064;-84
2024/01/11 01:45:51;;;;;;;43.83;15.05;;;;;;;-10.50;100.00;99606.53;2538221;29;20040;-84
2024/01/11 01:47:08;;;;;;;40.80;15.38;;;;;;;-10.64;100.00;99613.97;2538709;29;20092;-84
2024/01/11 01:48:27;;;;;;;36.40;15.75;;;;;;;-10.50;100.00;99609.06;2545062;29;20054;-85
2024/01/11 01:49:47;;;;;;;43.63;16.38;;;;;;;-10.38;100.00;99609.06;2534954;29;20040;-84
2024/01/11 01:51:06;;;;;;;35.13;13.10;;;;;;;-10.55;100.00;99600.25;2539885;29;20095;-85
2024/01/11 01:52:23;;;;;;;37.50;15.30;;;;;;;-10.63;100.00;99607.25;2540547;29;20048;-84
2024/01/11 01:53:40;;;;;;;34.40;13.10;;;;;;;-10.70;100.00;99593.28;2544979;29;20064;-85
2024/01/11 01:54:58;;;;;;;43.20;15.27;;;;;;;-10.40;100.00;99603.88;2555372;29;20099;-84
2024/01/11 01:56:16;;;;;;;39.97;15.02;;;;;;;-10.29;100.00;99597.06;2536692;29;20044;-85
2024/01/11 01:57:34;;;;;;;43.08;14.35;;;;;;;-10.31;100.00;99591.00;2532260;29;20107;-85
2024/01/11 01:58:53;;;;;;;38.10;14.15;;;;;;;-10.37;100.00;99590.56;2530476;29;20113;-85
2024/01/11 02:00:12;;;;;;;42.13;14.85;;;;;;;-10.40;100.00;99586.16;2523620;29;20481;-84
2024/01/11 02:01:28;;;;;;;44.55;14.77;;;;;;;-10.44;100.00;99588.38;2525712;29;20307;-85
2024/01/11 02:02:45;;;;;;;45.15;14.88;;;;;;;-10.74;100.00;99593.81;2534624;29;20051;-85
2024/01/11 02:04:02;;;;;;;40.53;14.40;;;;;;;-10.92;100.00;99596.69;2539203;29;20605;-84
2024/01/11 02:05:18;;;;;;;43.50;14.98;;;;;;;-11.03;100.00;99599.19;2544621;29;20036;-84
2024/01/11 02:06:36;;;;;;;34.40;14.15;;;;;;;-11.05;100.00;99605.78;2544087;29;20484;-84
2024/01/11 02:07:52;;;;;;;41.25;14.02;;;;;;;-11.22;100.00;99607.91;2538626;29;20032;-84
2024/01/11 02:09:10;;;;;;;34.45;14.15;;;;;;;-10.96;100.00;99603.97;2546681;29;20048;-84
2024/01/11 02:10:26;;;;;;;41.20;13.68;;;;;;;-10.80;100.00;99603.47;2540373;29;20040;-85
2024/01/11 02:11:44;;;;;;;37.38;13.90;;;;;;;-10.68;100.00;99606.91;2539848;29;20071;-84
2024/01/11 02:13:03;;;;;;;43.53;15.20;;;;;;;-10.63;100.00;99599.66;2548943;29;20040;-85
2024/01/11 02:14:19;;;;;;;36.97;14.15;;;;;;;-10.76;100.00;99602.03;2545513;29;20116;-84
2024/01/11 02:15:37;;;;;;;25.88;9.63;;;;;;;-11.03;100.00;99599.19;2545838;29;20099;-84
2024/01/11 02:16:53;;;;;;;14.02;8.00;;;;;;;-11.29;100.00;99595.53;2539825;29;20048;-84
2024/01/11 02:18:10;;;;;;;24.98;10.52;;;;;;;-11.24;100.00;99600.19;2529192;29;20048;-84
2024/01/11 02:19:27;;;;;;;32.90;12.43;;;;;;;-11.07;100.00;99595.53;2534368;29;20062;-84
2024/01/11 02:20:44;;;;;;;36.22;13.07;;;;;;;-10.70;100.00;99595.81;2539044;29;20036;-84
2024/01/11 02:22:15;;;;;;;32.15;13.57;;;;;;;-10.52;100.00;99591.22;2545944;29;20036;-84
2024/01/11 02:23:32;;;;;;;32.25;12.18;;;;;;;-10.56;100.00;99595.94;2533804;29;20390;-84
2024/01/11 02:24:49;;;;;;;37.35;13.52;;;;;;;-10.82;100.00;99580.59;2539722;29;20032;-84
2024/01/11 02:26:05;;;;;;;26.40;11.82;;;;;;;-10.64;100.00;99576.00;2546227;29;20035;-84
2024/01/11 02:27:21;;;;;;;43.40;15.07;;;;;;;-10.47;100.00;99573.88;2535017;29;20101;-84
2024/01/11 02:28:42;;;;;;;39.72;13.50;;;;;;;-10.57;100.00;99576.47;2531994;29;20043;-84
2024/01/11 02:29:59;;;;;;;;;;;;;;;-10.54;100.00;99584.28;2534578;29;20048;-84
2024/01/11 02:31:16;;;;;;;24.95;9.57;;;;;;;-10.51;100.00;99587.03;2523706;29;20406;-84
2024/01/11 02:32:32;;;;;;;27.75;12.20;;;;;;;-10.75;100.00;99586.09;2533421;29;20083;-84
2024/01/11 02:33:51;;;;;;;33.53;12.82;;;;;;;-10.96;100.00;99589.66;2533982;29;20770;-84
2024/01/11 02:35:07;;;;;;;37.65;13.55;;;;;;;-10.95;100.00;99588.88;2523419;29;20073;-84
2024/01/11 02:36:25;;;;;;;36.00;13.75;;;;;;;-10.82;100.00;99583.13;2522579;29;20053;-85
2024/01/11 02:37:42;;;;;;;33.88;13.15;;;;;;;-11.10;100.00;99580.13;2539528;29;20104;-84
2024/01/11 02:38:58;;;;;;;35.95;12.15;;;;;;;-10.96;100.00;99582.06;2544318;29;20083;-84
2024/01/11 02:40:15;;;;;;;30.30;10.60;;;;;;;-11.18;100.00;99579.56;2544221;29;20539;-84
2024/01/11 02:41:32;;;;;;;38.03;14.52;;;;;;;-11.31;100.00;99580.28;2543637;29;20092;-84
2024/01/11 02:42:48;;;;;;;36.83;13.85;;;;;;;-11.14;100.00;99576.47;2544139;29;20040;-84
2024/01/11 02:44:06;;;;;;;26.02;10.88;;;;;;;-11.21;100.00;99575.13;2542209;29;20052;-85
2024/01/11 02:45:23;;;;;;;21.45;9.50;;;;;;;-11.35;100.00;99569.03;2544434;29;21018;-84
2024/01/11 02:46:40;;;;;;;23.40;10.00;;;;;;;-11.26;100.00;99573.91;2544849;29;20043;-84
2024/01/11 02:47:56;;;;;;;21.00;9.43;;;;;;;-11.12;100.00;99574.09;2537274;29;20043;-84
2024/01/11 02:49:13;;;;;;;25.50;7.57;;;;;;;-11.13;100.00;99574.84;2537896;29;20036;-83
2024/01/11 02:50:29;;;;;;;21.00;9.25;;;;;;;-11.18;100.00;99581.19;2538085;29;20032;-84
2024/01/11 02:51:46;;;;;;;21.15;8.70;;;;;;;-11.25;100.00;99578.19;2538258;29;20043;-84
2024/01/11 02:53:03;;;;;;;34.00;12.30;;;;;;;-11.05;100.00;99575.44;2544777;29;20074;-83
2024/01/11 02:54:19;;;;;;;33.92;12.95;;;;;;;-11.10;100.00;99575.97;2544925;29;20512;-83
2024/01/11 02:55:35;;;;;;;34.20;13.00;;;;;;;-11.02;100.00;99570.59;2538392;29;20043;-84
2024/01/11 02:56:52;;;;;;;28.15;10.85;;;;;;;-10.91;100.00;99572.31;2538737;29;20040;-84
2024/01/11 02:58:09;;;;;;;21.73;8.77;;;;;;;-10.76;100.00;99576.75;2535085;29;20052;-84
2024/01/11 02:59:25;;;;;;;28.63;11.77;;;;;;;-10.67;100.00;99574.91;2532172;29;20528;-84
2024/01/11 03:00:41;;;;;;;34.35;12.80;;;;;;;-10.76;100.00;99570.03;2518500;29;20132;-84
2024/01/11 03:01:57;;;;;;;26.65;10.73;;;;;;;-10.84;100.00;99573.66;2526996;29;20040;-85
2024/01/11 03:03:14;;;;;;;35.65;12.82;;;;;;;-10.74;100.00;99568.50;2525037;29;20049;-84
2024/01/11 03:04:30;;;;;;;44.63;14.80;;;;;;;-10.76;100.00;99564.97;2536601;29;20496;-84
2024/01/11 03:05:47;;;;;;;50.00;15.30;;;;;;;-10.76;100.00;99564.97;2544809;29;20040;-84
2024/01/11 03:07:03;;;;;;;38.80;15.75;;;;;;;-10.64;100.00;99570.94;2537964;29;20040;-84
2024/01/11 03:08:20;;;;;;;35.80;14.15;;;;;;;-10.59;100.00;99571.28;2544631;29;20047;-85
2024/01/11 03:09:36;;;;;;;37.53;12.90;;;;;;;-10.65;100.00;99574.25;2543781;29;20028;-84
2024/01/11 03:10:52;;;;;;;32.20;13.32;;;;;;;-10.67;100.00;99579.97;2555627;29;20035;-84
2024/01/11 03:12:09;;;;;;;38.70;13.75;;;;;;;-10.77;100.00;99572.47;2550946;29;20103;-84
2024/01/11 03:13:25;;;;;;;31.15;13.00;;;;;;;-10.72;100.00;99581.25;2544408;29;20051;-84
2024/01/11 03:14:42;;;;;;;38.55;14.38;;;;;;;-10.87;100.00;99586.06;2539063;29;20044;-84
2024/01/11 03:15:59;;;;;;;33.63;13.07;;;;;;;-11.03;100.00;99584.00;2544147;29;20747;-84
2024/01/11 03:17:16;;;;;;;38.60;13.15;;;;;;;-11.06;100.00;99587.19;2546083;29;20035;-84
2024/01/11 03:18:32;;;;;;;38.90;14.38;;;;;;;-11.11;100.00;99588.50;2545515;29;20489;-84
2024/01/11 03:19:49;;;;;;;42.25;15.70;;;;;;;-11.07;100.00;99573.66;2543318;29;20044;-84
2024/01/11 03:21:05;;;;;;;38.97;14.98;;;;;;;-11.04;100.00;99572.13;2538429;29;20092;-84
2024/01/11 03:22:22;;;;;;;37.45;15.63;;;;;;;-11.10;100.00;99572.56;2527747;29;20052;-84
2024/01/11 03:23:39;;;;;;;43.88;14.60;;;;;;;-11.12;100.00;99581.66;2532357;29;20080;-84
2024/01/11 03:24:55;;;;;;;46.50;15.30;;;;;;;-10.89;100.00;99588.47;2551335;29;20738;-84
2024/01/11 03:26:16;;;;;;;43.90;15.63;;;;;;;-10.99;100.00;99586.91;2543120;29;20040;-84
2024/01/11 03:27:33;;;;;;;48.25;16.70;;;;;;;-11.12;100.00;99587.59;2538835;29;20160;-84
2024/01/11 03:28:49;;;;;;;44.30;16.23;;;;;;;-11.26;100.00;99589.06;2538880;29;20059;-84
2024/01/11 03:30:08;;;;;;;40.85;14.77;;;;;;;-11.38;100.00;99590.66;2545474;29;20048;-84
2024/01/11 03:31:24;;;;;;;39.55;14.60;;;;;;;-11.52;100.00;99587.94;2549968;29;20119;-84
2024/01/11 03:32:42;;;;;;;43.80;15.48;;;;;;;-11.28;100.00;99583.03;2534062;29;20123;-85
2024/01/11 03:33:59;;;;;;;38.17;13.98;;;;;;;-11.15;100.00;99579.78;2541119;29;20066;-84
2024/01/11 03:35:16;;;;;;;34.25;13.18;;;;;;;-11.05;100.00;99575.44;2524226;29;20049;-84
2024/01/11 03:36:32;;;;;;;45.53;14.18;;;;;;;-11.02;100.00;99581.63;2525858;29;20156;-84
2024/01/11 03:37:48;;;;;;;38.00;14.05;;;;;;;-11.06;100.00;99582.13;2533220;29;20112;-84
2024/01/11 03:39:04;;;;;;;39.13;14.82;;;;;;;-11.05;100.00;99573.75;2535339;29;20199;-84
2024/01/11 03:40:20;;;;;;;39.58;14.73;;;;;;;-11.09;100.00;99570.16;2537828;29;20103;-84
2024/01/11 03:41:36;;;;;;;36.30;14.48;;;;;;;-11.10;100.00;99560.81;2543058;29;20505;-84
2024/01/11 03:42:53;;;;;;;43.58;16.08;;;;;;;-11.05;100.00;99561.13;2553446;29;20047;-84
2024/01/11 03:44:09;;;;;;;40.53;15.05;;;;;;;-11.21;100.00;99562.50;2536212;29;20044;-84
2024/01/11 03:45:25;;;;;;;40.00;14.00;;;;;;;-11.45;100.00;99556.44;2532794;29;20127;-84
2024/01/11 03:46:41;;;;;;;41.13;14.95;;;;;;;-11.40;100.00;99552.59;2548921;29;20102;-84
2024/01/11 03:47:57;;;;;;;38.90;14.63;;;;;;;-11.30;100.00;99554.22;2543362;29;20056;-84
2024/01/11 03:49:14;;;;;;;38.85;14.60;;;;;;;-11.23;100.00;99563.16;2543782;29;20043;-85
2024/01/11 03:50:30;;;;;;;36.90;13.50;;;;;;;-11.26;100.00;99565.44;2544667;29;20080;-85
2024/01/11 03:51:46;;;;;;;27.00;10.68;;;;;;;-11.27;100.00;99564.56;2547319;29;20467;-84
2024/01/11 03:53:04;;;;;;;35.22;13.63;;;;;;;-11.27;100.00;99554.44;2534303;29;20469;-84
2024/01/11 03:54:20;;;;;;;31.83;12.30;;;;;;;-11.38;100.00;99560.31;2537968;29;20047;-85
2024/01/11 03:55:37;;;;;;;30.27;10.98;;;;;;;-11.50;100.00;99550.16;2545601;29;20052;-85
2024/01/11 03:56:53;;;;;;;31.77;12.98;;;;;;;-11.60;100.00;99556.13;2547395;29;20051;-84
2024/01/11 03:58:11;;;;;;;28.73;11.43;;;;;;;-11.46;100.00;99551.25;2550162;29;20091;-85
2024/01/11 03:59:27;;;;;;;20.80;8.95;;;;;;;-11.48;100.00;99558.75;2554334;29;20048;-85
2024/01/11 04:00:46;;;;;;;22.73;10.02;;;;;;;-11.31;100.00;99552.47;2542199;29;20048;-85
2024/01/11 04:02:02;;;;;;;37.50;13.70;;;;;;;-11.25;100.00;99557.06;2538610;29;20119;-85
2024/01/11 04:03:19;;;;;;;27.65;11.02;;;;;;;-11.34;100.00;99557.25;2538335;29;20115;-85
2024/01/11 04:04:36;;;;;;;28.77;11.27;;;;;;;-11.33;100.00;99564.06;2543488;29;20103;-85
2024/01/11 04:05:53;;;;;;;29.70;10.85;;;;;;;-11.29;100.00;99563.56;2535092;29;20072;-84
2024/01/11 04:07:10;;;;;;;44.05;13.65;;;;;;;-11.02;100.00;99571.50;2532706;29;20052;-84
2024/01/11 04:08:26;;;;;;;33.70;11.95;;;;;;;-10.83;100.00;99561.09;2545719;29;20051;-84
2024/01/11 04:09:43;;;;;;;18.70;9.90;;;;;;;-11.03;100.00;99564.69;2545254;29;20047;-84
2024/01/11 04:11:04;;;;;;;14.23;9.65;;;;;;;-11.18;100.00;99564.38;2537453;29;20035;-85
2024/01/11 04:12:23;;;;;;;31.63;12.40;;;;;;;-11.26;100.00;99570.47;2538089;29;20522;-85
2024/01/11 04:13:39;;;;;;;27.65;11.70;;;;;;;-11.31;100.00;99566.72;2549847;29;20280;-84
2024/01/11 04:14:55;;;;;;;36.28;13.05;;;;;;;-11.10;100.00;99560.81;2550418;29;20427;-85
2024/01/11 04:16:11;;;;;;;31.02;12.85;;;;;;;-11.04;100.00;99555.28;2542293;29;20117;-85
2024/01/11 04:17:29;;;;;;;40.55;14.70;;;;;;;-10.96;100.00;99568.56;2545188;29;20083;-84
2024/01/11 04:18:46;;;;;;;46.45;15.43;;;;;;;-10.95;100.00;99570.31;2544738;29;20056;-84
2024/01/11 04:20:03;;;;;;;21.02;8.82;;;;;;;-11.13;100.00;99558.00;2553819;29;20475;-84
2024/01/11 04:21:23;;;;;;;43.88;14.65;;;;;;;-11.11;100.00;99560.66;2548873;29;20423;-85
2024/01/11 04:22:40;;;;;;;34.63;13.27;;;;;;;-10.95;100.00;99556.00;2550622;29;20047;-84
2024/01/11 04:23:57;;;;;;;31.70;10.77;;;;;;;-10.80;100.00;99555.38;2545507;29;20044;-84
2024/01/11 04:25:15;;;;;;;32.28;11.25;;;;;;;-10.97;100.00;99557.53;2544950;29;20125;-85
2024/01/11 04:26:32;;;;;;;33.70;12.98;;;;;;;-10.92;100.00;99562.94;2542757;29;20036;-84
2024/01/11 04:27:49;;;;;;;36.85;13.95;;;;;;;-11.25;100.00;99572.25;2544147;29;20407;-85
2024/01/11 04:29:06;;;;;;;37.10;14.15;;;;;;;-11.55;100.00;99577.59;2545512;29;20111;-85
2024/01/11 04:30:22;;;;;;;42.30;15.45;;;;;;;-11.91;100.00;99573.94;2528001;29;20033;-84
2024/01/11 04:31:38;;;;;;;37.67;13.60;;;;;;;-12.08;100.00;99587.75;2526389;29;20103;-85
2024/01/11 04:32:54;;;;;;;40.17;15.85;;;;;;;-11.84;100.00;99581.25;2542684;29;20524;-85
2024/01/11 04:34:11;;;;;;;37.22;13.70;;;;;;;-11.83;100.00;99583.00;2549131;29;20036;-84
2024/01/11 04:35:27;;;;;;;37.35;14.25;;;;;;;-11.85;100.00;99573.53;2543621;29;20581;-85
2024/01/11 04:36:44;;;;;;;38.85;14.00;;;;;;;-11.57;100.00;99579.13;2544764;29;20098;-84
2024/01/11 04:38:01;;;;;;;38.38;12.50;;;;;;;-11.71;100.00;99569.59;2531298;29;20104;-84
2024/01/11 04:39:17;;;;;;;29.95;10.70;;;;;;;-11.66;100.00;99576.75;2531122;29;20040;-85
2024/01/11 04:40:33;;;;;;;36.13;13.68;;;;;;;-11.43;100.00;99576.78;2534032;29;20041;-85
2024/01/11 04:41:49;;;;;;;35.35;13.63;;;;;;;-11.67;100.00;99576.63;2530770;29;20036;-85
2024/01/11 04:43:08;;;;;;;35.45;13.80;;;;;;;-11.83;100.00;99580.47;2544084;29;20071;-84
2024/01/11 04:44:24;;;;;;;28.00;12.57;;;;;;;-11.83;100.00;99579.59;2543524;29;20082;-84
2024/01/11 04:45:41;;;;;;;43.63;13.73;;;;;;;-11.78;100.00;99581.72;2542506;29;20084;-85
2024/01/11 04:46:57;;;;;;;35.90;12.00;;;;;;;-11.84;100.00;99577.81;2547947;29;20074;-84
2024/01/11 04:48:13;;;;;;;35.47;12.52;;;;;;;-11.79;100.00;99577.44;2534684;29;20056;-84
2024/01/11 04:49:29;;;;;;;34.63;12.43;;;;;;;-11.60;100.00;99580.53;2540661;29;20039;-84
2024/01/11 04:50:46;;;;;;;25.45;10.73;;;;;;;-11.74;100.00;99571.84;2543453;29;20492;-84
2024/01/11 04:52:02;;;;;;;28.65;10.95;;;;;;;-11.93;100.00;99578.88;2537949;29;20513;-84
2024/01/11 04:53:18;;;;;;;41.28;13.95;;;;;;;-11.74;100.00;99580.31;2536585;29;20123;-84
2024/01/11 04:54:36;;;;;;;34.67;13.45;;;;;;;-11.60;100.00;99583.91;2541298;29;20505;-84
2024/01/11 04:55:52;;;;;;;37.47;12.82;;;;;;;-11.77;100.00;99583.47;2543787;29;20079;-84
2024/01/11 04:57:09;;;;;;;33.10;12.27;;;;;;;-11.57;100.00;99586.72;2544830;29;20684;-84
2024/01/11 04:58:25;;;;;;;24.80;11.50;;;;;;;-11.51;100.00;99589.69;2547484;29;20444;-84
2024/01/11 04:59:42;;;;;;;40.03;13.27;;;;;;;-11.49;100.00;99588.16;2533161;29;20120;-84
2024/01/11 05:00:58;;;;;;;26.50;10.80;;;;;;;-11.45;100.00;99588.41;2531995;29;20067;-84
2024/01/11 05:02:14;;;;;;;42.42;14.48;;;;;;;-11.44;100.00;99578.41;2545048;29;20087;-83
2024/01/11 05:03:31;;;;;;;40.95;14.90;;;;;;;-11.33;100.00;99574.19;2539615;29;20044;-84
2024/01/11 05:04:48;;;;;;;31.92;13.57;;;;;;;-11.45;100.00;99573.22;2542971;29;20150;-84
2024/01/11 05:06:04;;;;;;;33.60;13.30;;;;;;;-11.45;100.00;99571.59;2544140;29;20039;-84
2024/01/11 05:07:21;;;;;;;32.45;12.52;;;;;;;-11.44;100.00;99564.91;2543269;29;20036;-84
2024/01/11 05:08:38;;;;;;;34.28;14.15;;;;;;;-11.45;100.00;99558.06;2551158;29;20086;-84
2024/01/11 05:09:54;;;;;;;32.78;13.13;;;;;;;-11.45;100.00;99556.44;2542670;29;20048;-84
2024/01/11 05:11:21;;;;;;;35.20;13.27;;;;;;;-11.45;100.00;99558.97;2527129;29;20509;-84
2024/01/11 05:12:38;;;;;;;33.30;13.15;;;;;;;-11.39;100.00;99549.31;2537783;29;20036;-84
2024/01/11 05:13:55;;;;;;;33.17;12.77;;;;;;;-11.38;100.00;99550.22;2526070;29;20052;-84
2024/01/11 05:15:14;;;;;;;32.67;12.20;;;;;;;-11.56;100.00;99550.56;2517202;29;20040;-84
2024/01/11 05:16:30;;;;;;;29.02;11.75;;;;;;;-11.96;100.00;99557.53;2518013;29;20044;-84
2024/01/11 05:17:47;;;;;;;32.40;12.13;;;;;;;-11.91;100.00;99561.31;2511731;29;20040;-85
2024/01/11 05:19:03;;;;;;;30.60;11.88;;;;;;;-11.85;100.00;99560.91;2511561;29;20112;-84
2024/01/11 05:20:20;;;;;;;22.92;10.07;;;;;;;-11.78;100.00;99563.16;2531717;29;20040;-84
2024/01/11 05:21:57;;;;;;;18.38;6.75;;;;;;;-12.08;100.00;99568.47;2533951;29;20048;-84
2024/01/11 05:23:33;;;;;;;18.95;7.70;;;;;;;-12.14;100.00;99573.03;2533607;29;20044;-84
2024/01/11 05:25:14;;;;;;;14.80;5.10;;;;;;;-12.12;100.00;99568.97;2534783;29;20063;-84
2024/01/11 05:26:50;;;;;;;19.70;8.18;;;;;;;-11.86;100.00;99586.94;2533470;29;20051;-84
2024/01/11 05:28:27;;;;;;;9.88;3.95;;;;;;;-11.92;100.00;99579.75;2544072;29;20047;-83
2024/01/11 05:30:03;;;;;;;19.58;8.75;;;;;;;-11.51;100.00;99576.19;2535733;29;20049;-82
2024/01/11 05:31:32;;;;;;;16.25;4.57;;;;;;;-11.64;100.00;99557.56;2533745;29;20048;-85
2024/01/11 05:32:48;;;;;;;8.10;5.78;;;;;;;-11.85;100.00;99559.28;2534869;29;20573;-85
2024/01/11 05:34:24;;;;;;;22.02;9.63;;;;;;;-11.78;100.00;99558.97;2542527;29;20404;-84
2024/01/11 05:36:00;;;;;;;30.67;13.40;;;;;;;-11.64;100.00;99571.81;2535891;29;20059;-84
2024/01/11 05:37:36;;;;;;;36.30;13.88;;;;;;;-11.49;100.00;99572.13;2534200;29;20043;-85
2024/01/11 05:39:12;;;;;;;37.95;14.35;;;;;;;-11.43;100.00;99571.72;2535717;29;20481;-85
2024/01/11 05:40:48;;;;;;;31.73;10.23;;;;;;;-11.62;100.00;99570.28;2533134;29;20052;-84
2024/01/11 05:42:24;;;;;;;33.55;12.20;;;;;;;-11.45;100.00;99580.81;2534186;29;20051;-85
2024/01/11 05:44:00;;;;;;;32.47;12.38;;;;;;;-11.35;100.00;99570.66;2532650;29;20042;-84
2024/01/11 05:45:36;;;;;;;35.90;12.63;;;;;;;-11.41;100.00;99575.25;2533035;29;20563;-84
2024/01/11 05:46:54;;;;;;;32.95;13.60;;;;;;;-11.56;100.00;99578.34;2540879;29;20039;-83
2024/01/11 05:48:31;;;;;;;32.80;13.02;;;;;;;-11.62;100.00;99590.50;2534539;29;20060;-86
2024/01/11 05:50:08;;;;;;;35.83;13.18;;;;;;;-11.57;100.00;99583.28;2533206;29;20077;-85
2024/01/11 05:51:44;;;;;;;30.05;12.45;;;;;;;-11.50;100.00;99583.00;2533580;29;20048;-85
2024/01/11 05:53:20;;;;;;;32.05;12.93;;;;;;;-11.45;100.00;99583.34;2532096;29;20051;-83